Time,TemperatureF,DewpointF,PressureIn,WindDirection,WindDirectionDegrees,WindSpeedMPH,WindSpeedGustMPH,Humidity,HourlyPrecipIn,Conditions,Clouds,dailyrainin,SoftwareType,DateUTC
2013-03-05 00:00:00,45.4,28.8,29.94,ENE,74,0.0,0.0,52,0.00,,---,0.00,VWS V14.01,2013-03-05 08:00:00,
2013-03-05 00:05:00,45.4,28.8,29.95,ENE,74,0.0,0.0,52,0.00,,---,0.00,VWS V14.01,2013-03-05 08:05:00,
2013-03-05 00:10:00,45.4,28.4,29.94,ENE,74,0.0,0.0,51,0.00,,---,0.00,VWS V14.01,2013-03-05 08:10:00,
2013-03-05 00:15:00,45.4,28.4,29.94,ENE,74,0.0,0.0,51,0.00,,---,0.00,VWS V14.01,2013-03-05 08:15:00,
2013-03-05 00:20:00,45.4,28.8,29.94,ENE,74,0.0,0.0,52,0.00,,---,0.00,VWS V14.01,2013-03-05 08:20:00,
2013-03-05 00:25:00,45.4,28.8,29.94,ENE,74,0.0,0.0,52,0.00,,---,0.00,VWS V14.01,2013-03-05 08:25:00,
2013-03-05 00:30:00,45.4,28.8,29.94,ENE,74,0.0,0.0,52,0.00,,---,0.00,VWS V14.01,2013-03-05 08:30:00,
2013-03-05 00:35:00,45.4,28.4,29.94,ENE,74,0.0,0.0,51,0.00,,---,0.00,VWS V14.01,2013-03-05 08:35:00,
2013-03-05 00:40:00,45.4,28.8,29.94,ENE,74,0.0,0.0,52,0.00,,---,0.00,VWS V14.01,2013-03-05 08:40:00,
2013-03-05 00:45:00,45.3,28.7,29.94,ENE,74,0.0,0.0,52,0.00,,---,0.00,VWS V14.01,2013-03-05 08:45:00,
2013-03-05 00:50:00,45.3,28.2,29.94,ENE,74,0.0,0.0,51,0.00,,---,0.00,VWS V14.01,2013-03-05 08:50:00,
2013-03-05 00:55:00,45.3,28.7,29.93,ENE,74,0.0,0.0,52,0.00,,---,0.00,VWS V14.01,2013-03-05 08:55:00,
2013-03-05 01:00:00,45.3,28.2,29.93,ENE,74,0.0,0.0,51,0.00,,---,0.00,VWS V14.01,2013-03-05 09:00:00,
2013-03-05 01:05:00,45.4,28.8,29.94,ENE,74,0.0,0.0,52,0.00,,---,0.00,VWS V14.01,2013-03-05 09:05:00,
2013-03-05 01:10:00,45.3,28.2,29.93,ENE,74,0.0,0.0,51,0.00,,---,0.00,VWS V14.01,2013-03-05 09:10:00,
2013-03-05 01:15:00,45.3,28.7,29.94,ENE,74,0.0,0.0,52,0.00,,---,0.00,VWS V14.01,2013-03-05 09:15:00,
2013-03-05 01:20:00,45.2,28.2,29.93,ENE,74,0.0,0.0,51,0.00,,---,0.00,VWS V14.01,2013-03-05 09:20:00,
2013-03-05 01:25:00,45.2,28.6,29.93,ENE,74,0.0,0.0,52,0.00,,---,0.00,VWS V14.01,2013-03-05 09:25:00,
2013-03-05 01:30:00,45.2,28.6,29.93,ENE,74,0.0,0.0,52,0.00,,---,0.00,VWS V14.01,2013-03-05 09:30:00,
2013-03-05 01:35:00,45.1,29.0,29.93,ENE,74,0.0,0.0,53,0.00,,---,0.00,VWS V14.01,2013-03-05 09:35:00,
2013-03-05 01:40:00,45.1,29.0,29.93,ENE,74,0.0,0.0,53,0.00,,---,0.00,VWS V14.01,2013-03-05 09:40:00,
2013-03-05 01:45:00,45.0,29.4,29.93,ENE,74,0.0,0.0,54,0.00,,---,0.00,VWS V14.01,2013-03-05 09:45:00,
2013-03-05 01:50:00,44.9,29.3,29.93,ENE,70,0.0,0.0,54,0.00,,---,0.00,VWS V14.01,2013-03-05 09:50:00,
2013-03-05 01:55:00,44.8,28.7,29.93,ENE,70,0.0,0.0,53,0.00,,---,0.00,VWS V14.01,2013-03-05 09:55:00,
2013-03-05 02:00:00,44.6,28.5,29.93,ENE,70,0.0,0.0,53,0.00,,---,0.00,VWS V14.01,2013-03-05 10:00:00,
2013-03-05 02:05:00,44.6,28.5,29.93,ENE,70,0.0,0.0,53,0.00,,---,0.00,VWS V14.01,2013-03-05 10:05:00,
2013-03-05 02:10:00,44.7,28.6,29.93,ENE,70,0.0,0.0,53,0.00,,---,0.00,VWS V14.01,2013-03-05 10:10:00,
2013-03-05 02:15:00,44.7,28.6,29.93,ENE,70,0.0,0.0,53,0.00,,---,0.00,VWS V14.01,2013-03-05 10:15:00,
2013-03-05 02:20:00,44.7,28.6,29.92,ENE,70,0.0,0.0,53,0.00,,---,0.00,VWS V14.01,2013-03-05 10:20:00,
2013-03-05 02:25:00,44.8,28.7,29.92,ENE,70,0.0,0.0,53,0.00,,---,0.00,VWS V14.01,2013-03-05 10:25:00,
2013-03-05 02:30:00,44.7,28.6,29.92,ENE,70,0.0,0.0,53,0.00,,---,0.00,VWS V14.01,2013-03-05 10:30:00,
2013-03-05 02:35:00,44.6,28.5,29.91,ENE,70,0.0,0.0,53,0.00,,---,0.00,VWS V14.01,2013-03-05 10:35:00,
2013-03-05 02:40:00,44.6,28.5,29.91,ENE,70,0.0,0.0,53,0.00,,---,0.00,VWS V14.01,2013-03-05 10:40:00,
2013-03-05 02:45:00,44.5,29.4,29.91,ENE,70,0.0,0.0,55,0.00,,---,0.00,VWS V14.01,2013-03-05 10:45:00,
2013-03-05 02:50:00,44.5,29.4,29.90,ENE,70,0.0,0.0,55,0.00,,---,0.00,VWS V14.01,2013-03-05 10:50:00,
2013-03-05 02:55:00,44.4,28.8,29.90,ENE,70,0.0,0.0,54,0.00,,---,0.00,VWS V14.01,2013-03-05 10:55:00,
2013-03-05 03:00:00,44.5,28.9,29.90,ENE,70,0.0,0.0,54,0.00,,---,0.00,VWS V14.01,2013-03-05 11:00:00,
2013-03-05 03:05:00,44.5,28.9,29.90,ENE,70,0.0,0.0,54,0.00,,---,0.00,VWS V14.01,2013-03-05 11:05:00,
2013-03-05 03:10:00,44.6,29.0,29.90,ENE,70,0.0,0.0,54,0.00,,---,0.00,VWS V14.01,2013-03-05 11:10:00,
2013-03-05 03:15:00,44.6,29.0,29.89,ENE,70,0.0,0.0,54,0.00,,---,0.00,VWS V14.01,2013-03-05 11:15:00,
2013-03-05 03:20:00,44.7,29.5,29.89,ENE,70,0.0,0.0,55,0.00,,---,0.00,VWS V14.01,2013-03-05 11:20:00,
2013-03-05 03:25:00,44.6,29.0,29.89,ENE,71,0.0,0.0,54,0.00,,---,0.00,VWS V14.01,2013-03-05 11:25:00,
2013-03-05 03:30:00,44.6,29.0,29.89,ENE,71,0.0,0.0,54,0.00,,---,0.00,VWS V14.01,2013-03-05 11:30:00,
2013-03-05 03:35:00,44.5,29.8,29.89,ENE,71,0.0,0.0,56,0.00,,---,0.00,VWS V14.01,2013-03-05 11:35:00,
2013-03-05 03:39:00,44.5,30.7,29.89,ENE,71,0.0,0.0,58,0.00,,---,0.00,VWS V14.01,2013-03-05 11:39:00,
2013-03-05 03:45:00,44.6,30.3,29.89,ENE,71,0.0,0.0,57,0.00,,---,0.00,VWS V14.01,2013-03-05 11:45:00,
2013-03-05 03:50:00,44.6,29.9,29.89,ENE,71,0.0,0.0,56,0.00,,---,0.00,VWS V14.01,2013-03-05 11:50:00,
2013-03-05 03:54:00,44.6,29.0,29.89,ENE,71,0.0,0.0,54,0.00,,---,0.00,VWS V14.01,2013-03-05 11:54:00,
2013-03-05 03:59:00,44.7,29.5,29.89,ENE,70,0.0,0.0,55,0.00,,---,0.00,VWS V14.01,2013-03-05 11:59:00,
2013-03-05 04:00:00,44.9,29.7,29.87,ENE,71,0.0,0.0,55,0.00,,---,0.00,VWS V14.01,2013-03-05 12:00:00,
2013-03-05 04:04:00,44.8,30.1,29.88,ENE,71,0.0,0.0,56,0.00,,---,0.00,VWS V14.01,2013-03-05 12:04:00,
2013-03-05 04:09:00,44.7,30.0,29.88,ENE,71,0.0,0.0,56,0.00,,---,0.00,VWS V14.01,2013-03-05 12:09:00,
2013-03-05 04:14:00,44.7,29.5,29.88,ENE,71,0.0,0.0,55,0.00,,---,0.00,VWS V14.01,2013-03-05 12:14:00,
2013-03-05 04:15:00,44.8,29.6,29.86,ENE,71,0.0,0.0,55,0.00,,---,0.00,VWS V14.01,2013-03-05 12:15:00,
2013-03-05 04:19:00,44.6,29.0,29.88,ENE,71,0.0,0.0,54,0.00,,---,0.00,VWS V14.01,2013-03-05 12:19:00,
2013-03-05 04:24:00,44.6,30.8,29.88,ENE,71,0.0,0.0,58,0.00,,---,0.00,VWS V14.01,2013-03-05 12:24:00,
2013-03-05 04:29:00,44.7,30.4,29.88,ENE,71,0.0,0.0,57,0.00,,---,0.00,VWS V14.01,2013-03-05 12:29:00,
2013-03-05 04:30:00,44.8,30.5,29.85,ENE,71,0.0,0.0,57,0.00,,---,0.00,VWS V14.01,2013-03-05 12:30:00,
2013-03-05 04:34:00,44.8,30.5,29.88,ENE,71,0.0,0.0,57,0.00,,---,0.00,VWS V14.01,2013-03-05 12:34:00,
2013-03-05 04:39:00,44.8,29.6,29.88,ENE,71,0.0,0.0,55,0.00,,---,0.00,VWS V14.01,2013-03-05 12:39:00,
2013-03-05 04:44:00,44.8,29.6,29.88,ENE,71,0.0,0.0,55,0.00,,---,0.00,VWS V14.01,2013-03-05 12:44:00,
2013-03-05 04:45:00,44.9,31.5,29.85,ENE,70,0.0,0.0,59,0.00,,---,0.00,VWS V14.01,2013-03-05 12:45:00,
2013-03-05 04:49:00,44.7,29.1,29.87,ENE,71,0.0,0.0,54,0.00,,---,0.00,VWS V14.01,2013-03-05 12:49:00,
2013-03-05 04:54:00,44.7,28.2,29.87,ENE,70,0.0,0.0,52,0.00,,---,0.00,VWS V14.01,2013-03-05 12:54:00,
2013-03-05 04:59:00,44.9,29.3,29.87,ENE,71,0.0,0.0,54,0.00,,---,0.00,VWS V14.01,2013-03-05 12:59:00,
2013-03-05 05:00:00,44.9,32.7,29.84,ENE,70,0.0,0.0,62,0.00,,---,0.00,VWS V14.01,2013-03-05 13:00:00,
2013-03-05 05:04:00,44.9,29.3,29.87,ENE,71,0.0,0.0,54,0.00,,---,0.00,VWS V14.01,2013-03-05 13:04:00,
2013-03-05 05:09:00,44.9,29.3,29.86,ENE,71,0.0,0.0,54,0.00,,---,0.00,VWS V14.01,2013-03-05 13:09:00,
2013-03-05 05:14:00,44.8,29.6,29.86,ENE,71,0.0,0.0,55,0.00,,---,0.00,VWS V14.01,2013-03-05 13:14:00,
2013-03-05 05:15:00,44.9,33.1,29.84,ENE,70,0.0,0.0,63,0.00,,---,0.00,VWS V14.01,2013-03-05 13:15:00,
2013-03-05 05:19:00,44.7,29.1,29.86,ENE,71,0.0,0.0,54,0.00,,---,0.00,VWS V14.01,2013-03-05 13:19:00,
2013-03-05 05:24:00,44.7,30.0,29.86,ENE,71,0.0,0.0,56,0.00,,---,0.00,VWS V14.01,2013-03-05 13:24:00,
2013-03-05 05:29:00,44.8,30.5,29.86,ENE,70,0.0,0.0,57,0.00,,---,0.00,VWS V14.01,2013-03-05 13:29:00,
2013-03-05 05:30:00,44.7,34.0,29.83,ENE,71,0.0,0.0,66,0.00,,---,0.00,VWS V14.01,2013-03-05 13:30:00,
2013-03-05 05:34:00,44.9,30.6,29.85,ENE,71,0.0,0.0,57,0.00,,---,0.00,VWS V14.01,2013-03-05 13:34:00,
2013-03-05 05:39:00,44.9,31.0,29.85,ENE,71,0.0,0.0,58,0.00,,---,0.00,VWS V14.01,2013-03-05 13:39:00,
2013-03-05 05:44:00,44.9,31.5,29.85,ENE,71,0.0,0.0,59,0.00,,---,0.00,VWS V14.01,2013-03-05 13:44:00,
2013-03-05 05:45:00,44.7,34.0,29.84,ENE,70,0.0,0.0,66,0.00,,---,0.00,VWS V14.01,2013-03-05 13:45:00,
2013-03-05 05:49:00,44.9,31.5,29.85,ENE,71,0.0,0.0,59,0.00,,---,0.00,VWS V14.01,2013-03-05 13:49:00,
2013-03-05 05:54:00,44.9,31.9,29.85,ENE,71,0.0,0.0,60,0.00,,---,0.00,VWS V14.01,2013-03-05 13:54:00,
2013-03-05 05:59:00,44.8,32.2,29.84,ENE,71,0.0,0.0,61,0.00,,---,0.00,VWS V14.01,2013-03-05 13:59:00,
2013-03-05 06:00:00,44.8,33.8,29.84,West,269,0.0,0.0,65,0.00,,---,0.00,VWS V14.01,2013-03-05 14:00:00,
2013-03-05 06:04:00,45.0,32.4,29.84,ENE,71,0.0,0.0,61,0.00,,---,0.00,VWS V14.01,2013-03-05 14:04:00,
2013-03-05 06:09:00,45.0,32.8,29.84,ENE,70,0.0,0.0,62,0.00,,---,0.00,VWS V14.01,2013-03-05 14:09:00,
2013-03-05 06:14:00,44.9,33.5,29.84,ENE,71,0.0,0.0,64,0.00,,---,0.00,VWS V14.01,2013-03-05 14:14:00,
2013-03-05 06:15:00,44.1,36.7,29.85,WNW,288,0.0,0.0,75,0.00,,---,0.00,VWS V14.01,2013-03-05 14:15:00,
2013-03-05 06:19:00,44.9,33.9,29.84,ENE,70,0.0,0.0,65,0.00,,---,0.00,VWS V14.01,2013-03-05 14:19:00,
2013-03-05 06:24:00,44.8,33.8,29.83,ENE,70,0.0,0.0,65,0.00,,---,0.00,VWS V14.01,2013-03-05 14:24:00,
2013-03-05 06:29:00,44.8,34.2,29.84,ENE,70,0.0,0.0,66,0.00,,---,0.00,VWS V14.01,2013-03-05 14:29:00,
2013-03-05 06:30:00,43.7,37.0,29.85,West,280,0.0,0.0,77,0.00,,---,0.00,VWS V14.01,2013-03-05 14:30:00,
2013-03-05 06:34:00,44.7,34.4,29.83,ENE,71,0.0,0.0,67,0.00,,---,0.00,VWS V14.01,2013-03-05 14:34:00,
2013-03-05 06:39:00,44.7,34.4,29.84,ENE,71,0.0,0.0,67,0.00,,---,0.00,VWS V14.01,2013-03-05 14:39:00,
2013-03-05 06:44:00,44.7,34.8,29.84,ENE,71,0.0,0.0,68,0.00,,---,0.00,VWS V14.01,2013-03-05 14:44:00,
2013-03-05 06:45:00,44.0,34.5,29.85,NW,317,0.0,0.0,69,0.00,,---,0.00,VWS V14.01,2013-03-05 14:45:00,
2013-03-05 06:49:00,44.7,34.0,29.84,ENE,70,0.0,0.0,66,0.00,,---,0.00,VWS V14.01,2013-03-05 14:49:00,
2013-03-05 06:54:00,44.8,34.2,29.84,ENE,71,0.0,0.0,66,0.00,,---,0.00,VWS V14.01,2013-03-05 14:54:00,
2013-03-05 06:59:00,44.8,33.8,29.84,West,269,0.0,0.0,65,0.00,,---,0.00,VWS V14.01,2013-03-05 14:59:00,
2013-03-05 07:00:00,44.7,33.7,29.85,NW,317,0.0,0.0,65,0.00,,---,0.00,VWS V14.01,2013-03-05 15:00:00,
2013-03-05 07:04:00,44.9,33.9,29.85,WSW,255,0.0,0.0,65,0.00,,---,0.00,VWS V14.01,2013-03-05 15:04:00,
2013-03-05 07:09:00,44.4,35.6,29.85,West,261,0.0,0.0,71,0.00,,---,0.00,VWS V14.01,2013-03-05 15:09:00,
2013-03-05 07:14:00,44.2,36.5,29.85,WNW,283,0.0,0.0,74,0.00,,---,0.00,VWS V14.01,2013-03-05 15:14:00,
2013-03-05 07:15:00,45.2,32.6,29.86,NW,317,0.0,0.0,61,0.00,,---,0.00,VWS V14.01,2013-03-05 15:15:00,
2013-03-05 07:19:00,44.0,36.6,29.85,West,264,0.0,0.0,75,0.00,,---,0.00,VWS V14.01,2013-03-05 15:19:00,
2013-03-05 07:24:00,43.8,36.7,29.85,WNW,282,0.0,0.0,76,0.00,,---,0.00,VWS V14.01,2013-03-05 15:24:00,
2013-03-05 07:29:00,43.7,37.0,29.85,West,281,0.0,0.0,77,0.00,,---,0.00,VWS V14.01,2013-03-05 15:29:00,
2013-03-05 07:30:00,45.0,32.8,29.87,WNW,302,0.0,0.0,62,0.00,,---,0.00,VWS V14.01,2013-03-05 15:30:00,
2013-03-05 07:34:00,43.7,36.6,29.85,NW,325,0.0,0.0,76,0.00,,---,0.00,VWS V14.01,2013-03-05 15:34:00,
2013-03-05 07:39:00,43.8,35.7,29.86,NNW,331,0.0,0.0,73,0.00,,---,0.00,VWS V14.01,2013-03-05 15:39:00,
2013-03-05 07:44:00,43.9,35.1,29.85,NW,304,0.0,0.0,71,0.00,,---,0.00,VWS V14.01,2013-03-05 15:44:00,
2013-03-05 07:45:00,45.0,33.6,29.87,WNW,302,0.0,0.0,64,0.00,,---,0.00,VWS V14.01,2013-03-05 15:45:00,
2013-03-05 07:49:00,44.2,34.0,29.85,NW,317,0.0,0.0,67,0.00,,---,0.00,VWS V14.01,2013-03-05 15:49:00,
2013-03-05 07:54:00,44.4,34.5,29.85,NW,317,0.0,0.0,68,0.00,,---,0.00,VWS V14.01,2013-03-05 15:54:00,
2013-03-05 07:59:00,44.7,34.0,29.85,NW,317,0.0,0.0,66,0.00,,---,0.00,VWS V14.01,2013-03-05 15:59:00,
2013-03-05 08:00:00,44.7,34.0,29.86,WSW,252,0.0,0.0,66,0.00,,---,0.00,VWS V14.01,2013-03-05 16:00:00,
2013-03-05 08:04:00,44.9,33.5,29.85,NW,317,0.0,0.0,64,0.00,,---,0.00,VWS V14.01,2013-03-05 16:04:00,
2013-03-05 08:09:00,44.9,33.1,29.86,NW,317,0.0,0.0,63,0.00,,---,0.00,VWS V14.01,2013-03-05 16:09:00,
2013-03-05 08:14:00,45.2,33.4,29.86,NW,317,0.0,0.0,63,0.00,,---,0.00,VWS V14.01,2013-03-05 16:14:00,
2013-03-05 08:15:00,44.8,34.2,29.87,WSW,252,0.0,0.0,66,0.00,,---,0.00,VWS V14.01,2013-03-05 16:15:00,
2013-03-05 08:19:00,45.2,32.6,29.86,WNW,302,0.0,0.0,61,0.00,,---,0.00,VWS V14.01,2013-03-05 16:19:00,
2013-03-05 08:24:00,45.1,32.5,29.86,WNW,302,0.0,0.0,61,0.00,,---,0.00,VWS V14.01,2013-03-05 16:24:00,
2013-03-05 08:29:00,45.0,32.8,29.87,WNW,302,0.0,0.0,62,0.00,,---,0.00,VWS V14.01,2013-03-05 16:29:00,
2013-03-05 08:30:00,45.7,35.0,29.86,West,261,0.0,0.0,66,0.00,,---,0.00,VWS V14.01,2013-03-05 16:30:00,
2013-03-05 08:34:00,45.0,33.2,29.86,WNW,302,0.0,0.0,63,0.00,,---,0.00,VWS V14.01,2013-03-05 16:34:00,
2013-03-05 08:39:00,44.9,33.1,29.86,WNW,302,0.0,0.0,63,0.00,,---,0.00,VWS V14.01,2013-03-05 16:39:00,
2013-03-05 08:44:00,45.0,33.6,29.87,WNW,302,0.0,0.0,64,0.00,,---,0.00,VWS V14.01,2013-03-05 16:44:00,
2013-03-05 08:45:00,46.1,35.4,29.86,WNW,288,0.0,0.0,66,0.00,,---,0.00,VWS V14.01,2013-03-05 16:45:00,
2013-03-05 08:49:00,44.9,33.5,29.87,WNW,302,0.0,0.0,64,0.00,,---,0.00,VWS V14.01,2013-03-05 16:49:00,
2013-03-05 08:54:00,44.7,33.3,29.86,WSW,252,0.0,0.0,64,0.00,,---,0.00,VWS V14.01,2013-03-05 16:54:00,
2013-03-05 08:59:00,44.7,33.7,29.86,WSW,252,0.0,0.0,65,0.00,,---,0.00,VWS V14.01,2013-03-05 16:59:00,
2013-03-05 09:00:00,46.6,35.9,29.86,WNW,288,0.0,0.0,66,0.00,,---,0.00,VWS V14.01,2013-03-05 17:00:00,
2013-03-05 09:04:00,44.7,33.7,29.86,WSW,252,0.0,0.0,65,0.00,,---,0.00,VWS V14.01,2013-03-05 17:04:00,
2013-03-05 09:09:00,44.7,34.0,29.86,WSW,252,0.0,0.0,66,0.00,,---,0.00,VWS V14.01,2013-03-05 17:09:00,
2013-03-05 09:14:00,44.7,34.0,29.86,WSW,252,0.0,0.0,66,0.00,,---,0.00,VWS V14.01,2013-03-05 17:14:00,
2013-03-05 09:15:00,46.5,36.2,29.85,NW,309,0.0,0.0,67,0.00,,---,0.00,VWS V14.01,2013-03-05 17:15:00,
2013-03-05 09:19:00,44.9,34.2,29.86,WSW,254,0.0,0.0,66,0.00,,---,0.00,VWS V14.01,2013-03-05 17:19:00,
2013-03-05 09:24:00,45.2,34.2,29.86,WSW,255,0.0,0.0,65,0.00,,---,0.00,VWS V14.01,2013-03-05 17:24:00,
2013-03-05 09:29:00,45.6,34.9,29.86,West,261,0.0,0.0,66,0.00,,---,0.00,VWS V14.01,2013-03-05 17:29:00,
2013-03-05 09:30:00,46.8,36.1,29.84,NNW,337,0.0,0.0,66,0.00,,---,0.00,VWS V14.01,2013-03-05 17:30:00,
2013-03-05 09:34:00,45.7,34.6,29.86,WNW,288,0.0,0.0,65,0.00,,---,0.00,VWS V14.01,2013-03-05 17:34:00,
2013-03-05 09:39:00,45.7,34.6,29.86,WNW,287,0.0,0.0,65,0.00,,---,0.00,VWS V14.01,2013-03-05 17:39:00,
2013-03-05 09:44:00,45.9,35.2,29.86,WNW,287,0.0,0.0,66,0.00,,---,0.00,VWS V14.01,2013-03-05 17:44:00,
2013-03-05 09:45:00,47.3,36.5,29.84,North,355,0.0,0.0,66,0.00,,---,0.00,VWS V14.01,2013-03-05 17:45:00,
2013-03-05 09:49:00,46.1,35.4,29.86,WNW,288,0.0,0.0,66,0.00,,---,0.00,VWS V14.01,2013-03-05 17:49:00,
2013-03-05 09:54:00,46.2,35.9,29.86,WNW,287,0.0,0.0,67,0.00,,---,0.00,VWS V14.01,2013-03-05 17:54:00,
2013-03-05 09:59:00,46.5,35.4,29.86,WNW,288,0.0,0.0,65,0.00,,---,0.00,VWS V14.01,2013-03-05 17:59:00,
2013-03-05 10:00:00,47.8,36.6,29.84,NW,308,0.0,0.0,65,0.00,,---,0.00,VWS V14.01,2013-03-05 18:00:00,
2013-03-05 10:04:00,46.7,35.6,29.86,WNW,294,0.0,0.0,65,0.00,,---,0.00,VWS V14.01,2013-03-05 18:04:00,
2013-03-05 10:09:00,46.8,36.0,29.85,NW,313,0.0,0.0,66,0.00,,---,0.00,VWS V14.01,2013-03-05 18:09:00,
2013-03-05 10:14:00,46.5,35.8,29.85,NW,308,0.0,0.0,66,0.00,,---,0.00,VWS V14.01,2013-03-05 18:14:00,
2013-03-05 10:15:00,48.5,36.1,29.84,NNW,329,0.0,0.0,62,0.00,,---,0.00,VWS V14.01,2013-03-05 18:15:00,
2013-03-05 10:19:00,46.7,36.3,29.85,NW,312,0.0,0.0,67,0.00,,---,0.00,VWS V14.01,2013-03-05 18:19:00,
2013-03-05 10:24:00,46.7,36.0,29.85,North,11,0.0,0.0,66,0.00,,---,0.00,VWS V14.01,2013-03-05 18:24:00,
2013-03-05 10:29:00,46.8,36.0,29.84,NNW,337,0.0,0.0,66,0.00,,---,0.00,VWS V14.01,2013-03-05 18:29:00,
2013-03-05 10:30:00,48.6,35.4,29.83,NNW,341,0.0,0.0,60,0.00,,---,0.00,VWS V14.01,2013-03-05 18:30:00,
2013-03-05 10:34:00,46.8,36.4,29.84,NW,309,0.0,0.0,67,0.00,,---,0.00,VWS V14.01,2013-03-05 18:34:00,
2013-03-05 10:39:00,47.2,36.4,29.84,NNW,338,0.0,0.0,66,0.00,,---,0.00,VWS V14.01,2013-03-05 18:39:00,
2013-03-05 10:44:00,47.5,36.7,29.84,NNW,339,0.0,0.0,66,0.00,,---,0.00,VWS V14.01,2013-03-05 18:44:00,
2013-03-05 10:45:00,48.6,36.2,29.83,NNW,331,0.0,0.0,62,0.00,,---,0.00,VWS V14.01,2013-03-05 18:45:00,
2013-03-05 10:49:00,47.1,36.3,29.84,NNW,335,0.0,0.0,66,0.00,,---,0.00,VWS V14.01,2013-03-05 18:49:00,
2013-03-05 10:54:00,47.0,36.2,29.84,NW,313,0.0,0.0,66,0.00,,---,0.00,VWS V14.01,2013-03-05 18:54:00,
2013-03-05 10:59:00,47.5,36.7,29.84,NW,309,0.0,0.0,66,0.00,,---,0.00,VWS V14.01,2013-03-05 18:59:00,
2013-03-05 11:00:00,48.7,37.1,29.83,NW,309,0.0,0.0,64,0.00,,---,0.00,VWS V14.01,2013-03-05 19:00:00,
2013-03-05 11:04:00,47.8,36.2,29.84,NNW,344,0.0,0.0,64,0.00,,---,0.00,VWS V14.01,2013-03-05 19:04:00,
2013-03-05 11:09:00,48.0,36.0,29.84,NNW,344,0.0,0.0,63,0.00,,---,0.00,VWS V14.01,2013-03-05 19:09:00,
2013-03-05 11:14:00,48.4,35.6,29.84,NNW,340,0.0,0.0,61,0.00,,---,0.00,VWS V14.01,2013-03-05 19:14:00,
2013-03-05 11:15:00,47.2,37.6,29.83,West,271,0.0,0.0,69,0.00,,---,0.00,VWS V14.01,2013-03-05 19:15:00,
2013-03-05 11:19:00,48.4,36.0,29.83,NNW,329,0.0,0.0,62,0.00,,---,0.00,VWS V14.01,2013-03-05 19:19:00,
2013-03-05 11:24:00,48.7,35.9,29.83,NNW,341,0.0,0.0,61,0.00,,---,0.00,VWS V14.01,2013-03-05 19:24:00,
2013-03-05 11:29:00,48.9,35.6,29.83,NNW,341,0.0,0.0,60,0.00,,---,0.00,VWS V14.01,2013-03-05 19:29:00,
2013-03-05 11:30:00,46.8,37.2,29.83,WNW,302,0.0,0.0,69,0.00,,---,0.00,VWS V14.01,2013-03-05 19:30:00,
2013-03-05 11:34:00,48.7,35.9,29.83,NNW,340,0.0,0.0,61,0.00,,---,0.00,VWS V14.01,2013-03-05 19:34:00,
2013-03-05 11:39:00,48.5,35.3,29.83,NNW,330,0.0,0.0,60,0.00,,---,0.00,VWS V14.01,2013-03-05 19:39:00,
2013-03-05 11:44:00,48.3,35.9,29.83,NNW,334,0.0,0.0,62,0.00,,---,0.00,VWS V14.01,2013-03-05 19:44:00,
2013-03-05 11:45:00,46.9,38.4,29.82,NNW,337,0.0,0.0,72,0.00,,---,0.00,VWS V14.01,2013-03-05 19:45:00,
2013-03-05 11:49:00,48.8,36.4,29.83,WNW,293,0.0,0.0,62,0.00,,---,0.00,VWS V14.01,2013-03-05 19:49:00,
2013-03-05 11:54:00,48.8,36.4,29.83,NW,304,0.0,0.0,62,0.00,,---,0.00,VWS V14.01,2013-03-05 19:54:00,
2013-03-05 11:59:00,49.0,36.6,29.83,NNW,338,0.0,0.0,62,0.00,,---,0.00,VWS V14.01,2013-03-05 19:59:00,
2013-03-05 12:00:00,47.0,38.8,29.82,NW,308,0.0,0.0,73,0.00,,---,0.00,VWS V14.01,2013-03-05 20:00:00,
2013-03-05 12:04:00,48.2,37.4,29.83,NW,321,0.0,0.0,66,0.00,,---,0.00,VWS V14.01,2013-03-05 20:04:00,
2013-03-05 12:09:00,47.2,37.2,29.83,NW,320,0.0,0.0,68,0.00,,---,0.00,VWS V14.01,2013-03-05 20:09:00,
2013-03-05 12:14:00,47.1,37.5,29.83,NW,317,0.0,0.0,69,0.00,,---,0.00,VWS V14.01,2013-03-05 20:14:00,
2013-03-05 12:15:00,47.6,39.7,29.82,West,259,0.0,0.0,74,0.00,,---,0.00,VWS V14.01,2013-03-05 20:15:00,
2013-03-05 12:19:00,47.0,37.0,29.82,NW,309,0.0,0.0,68,0.00,,---,0.00,VWS V14.01,2013-03-05 20:19:00,
2013-03-05 12:24:00,46.7,37.1,29.83,NW,313,0.0,0.0,69,0.00,,---,0.00,VWS V14.01,2013-03-05 20:24:00,
2013-03-05 12:29:00,46.9,37.3,29.83,NW,309,0.0,0.0,69,0.00,,---,0.00,VWS V14.01,2013-03-05 20:29:00,
2013-03-05 12:30:00,46.7,39.2,29.81,WNW,300,0.0,0.0,75,0.00,,---,0.00,VWS V14.01,2013-03-05 20:30:00,
2013-03-05 12:34:00,46.7,37.5,29.83,WNW,302,0.0,0.0,70,0.00,,---,0.00,VWS V14.01,2013-03-05 20:34:00,
2013-03-05 12:39:00,46.7,37.8,29.82,NNW,336,0.0,0.0,71,0.00,,---,0.00,VWS V14.01,2013-03-05 20:39:00,
2013-03-05 12:44:00,46.8,38.3,29.82,NW,311,0.0,0.0,72,0.00,,---,0.00,VWS V14.01,2013-03-05 20:44:00,
2013-03-05 12:45:00,47.1,39.6,29.81,NW,317,0.0,0.0,75,0.00,,---,0.00,VWS V14.01,2013-03-05 20:45:00,
2013-03-05 12:49:00,46.8,38.6,29.82,NW,324,0.0,0.0,73,0.00,,---,0.00,VWS V14.01,2013-03-05 20:49:00,
2013-03-05 12:54:00,46.8,38.3,29.82,NNW,327,0.0,0.0,72,0.00,,---,0.00,VWS V14.01,2013-03-05 20:54:00,
2013-03-05 12:59:00,46.9,38.7,29.82,NW,315,0.0,0.0,73,0.00,,---,0.00,VWS V14.01,2013-03-05 20:59:00,
2013-03-05 13:00:00,47.3,39.1,29.81,WNW,290,0.0,0.0,73,0.00,,---,0.00,VWS V14.01,2013-03-05 21:00:00,
2013-03-05 13:04:00,47.0,38.5,29.82,WNW,290,0.0,0.0,72,0.00,,---,0.00,VWS V14.01,2013-03-05 21:04:00,
2013-03-05 13:09:00,47.1,38.5,29.82,NNW,327,0.0,0.0,72,0.00,,---,0.00,VWS V14.01,2013-03-05 21:09:00,
2013-03-05 13:14:00,47.3,39.5,29.82,WNW,302,0.0,0.0,74,0.00,,---,0.00,VWS V14.01,2013-03-05 21:14:00,
2013-03-05 13:15:00,47.3,38.7,29.80,WNW,301,0.0,0.0,72,0.00,,---,0.00,VWS V14.01,2013-03-05 21:15:00,
2013-03-05 13:19:00,47.7,39.8,29.82,WSW,242,0.0,0.0,74,0.00,,---,0.00,VWS V14.01,2013-03-05 21:19:00,
2013-03-05 13:24:00,47.2,38.7,29.82,WNW,292,0.0,0.0,72,0.00,,---,0.00,VWS V14.01,2013-03-05 21:24:00,
2013-03-05 13:29:00,46.9,39.4,29.82,WNW,292,0.0,0.0,75,0.00,,---,0.00,VWS V14.01,2013-03-05 21:29:00,
2013-03-05 13:30:00,47.5,38.9,29.81,West,265,0.0,0.0,72,0.00,,---,0.00,VWS V14.01,2013-03-05 21:30:00,
2013-03-05 13:34:00,46.7,39.2,29.81,West,279,0.0,0.0,75,0.00,,---,0.00,VWS V14.01,2013-03-05 21:34:00,
2013-03-05 13:39:00,46.6,39.1,29.81,West,277,0.0,0.0,75,0.00,,---,0.00,VWS V14.01,2013-03-05 21:39:00,
2013-03-05 13:44:00,46.8,39.3,29.81,NW,317,0.0,0.0,75,0.00,,---,0.00,VWS V14.01,2013-03-05 21:44:00,
2013-03-05 13:45:00,47.3,39.1,29.81,West,271,0.0,0.0,73,0.00,,---,0.00,VWS V14.01,2013-03-05 21:45:00,
2013-03-05 13:49:00,47.3,39.5,29.81,NW,310,0.0,0.0,74,0.00,,---,0.00,VWS V14.01,2013-03-05 21:49:00,
2013-03-05 13:54:00,47.3,39.1,29.81,West,267,0.0,0.0,73,0.00,,---,0.00,VWS V14.01,2013-03-05 21:54:00,
2013-03-05 13:59:00,47.3,39.5,29.81,WNW,290,0.0,0.0,74,0.00,,---,0.00,VWS V14.01,2013-03-05 21:59:00,
2013-03-05 14:00:00,47.6,39.0,29.80,West,272,0.0,0.0,72,0.00,,---,0.00,VWS V14.01,2013-03-05 22:00:00,
2013-03-05 14:04:00,47.4,39.2,29.80,WNW,289,0.0,0.0,73,0.00,,---,0.00,VWS V14.01,2013-03-05 22:04:00,
2013-03-05 14:09:00,47.4,39.2,29.80,NW,304,0.0,0.0,73,0.00,,---,0.00,VWS V14.01,2013-03-05 22:09:00,
2013-03-05 14:14:00,47.3,38.7,29.80,WNW,300,0.0,0.0,72,0.00,,---,0.00,VWS V14.01,2013-03-05 22:14:00,
2013-03-05 14:15:00,47.5,39.3,29.80,West,270,0.0,0.0,73,0.00,,---,0.00,VWS V14.01,2013-03-05 22:15:00,
2013-03-05 14:19:00,47.4,38.5,29.80,WNW,303,0.0,0.0,71,0.00,,---,0.00,VWS V14.01,2013-03-05 22:19:00,
2013-03-05 14:24:00,47.4,38.8,29.81,WSW,250,0.0,0.0,72,0.00,,---,0.00,VWS V14.01,2013-03-05 22:24:00,
2013-03-05 14:29:00,47.4,38.8,29.81,West,266,0.0,0.0,72,0.00,,---,0.00,VWS V14.01,2013-03-05 22:29:00,
2013-03-05 14:30:00,47.5,39.3,29.80,West,270,0.0,0.0,73,0.00,,---,0.00,VWS V14.01,2013-03-05 22:30:00,
2013-03-05 14:34:00,47.4,38.5,29.81,West,260,0.0,0.0,71,0.00,,---,0.00,VWS V14.01,2013-03-05 22:34:00,
2013-03-05 14:39:00,47.2,39.0,29.81,West,280,0.0,0.0,73,0.00,,---,0.00,VWS V14.01,2013-03-05 22:39:00,
2013-03-05 14:44:00,47.3,39.1,29.81,West,271,0.0,0.0,73,0.00,,---,0.00,VWS V14.01,2013-03-05 22:44:00,
2013-03-05 14:45:00,47.3,39.1,29.80,West,268,0.0,0.0,73,0.00,,---,0.00,VWS V14.01,2013-03-05 22:45:00,
2013-03-05 14:49:00,47.4,39.5,29.80,West,271,0.0,0.0,74,0.00,,---,0.00,VWS V14.01,2013-03-05 22:49:00,
2013-03-05 14:54:00,47.4,39.2,29.80,West,272,0.0,0.0,73,0.00,,---,0.00,VWS V14.01,2013-03-05 22:54:00,
2013-03-05 14:59:00,47.5,38.9,29.80,West,272,0.0,0.0,72,0.00,,---,0.00,VWS V14.01,2013-03-05 22:59:00,
2013-03-05 15:00:00,47.4,40.2,29.80,WSW,250,0.0,0.0,76,0.00,,---,0.00,VWS V14.01,2013-03-05 23:00:00,
2013-03-05 15:04:00,47.5,38.6,29.80,WSW,252,0.0,0.0,71,0.00,,---,0.00,VWS V14.01,2013-03-05 23:04:00,
2013-03-05 15:09:00,47.5,38.6,29.80,WNW,291,0.0,0.0,71,0.00,,---,0.00,VWS V14.01,2013-03-05 23:09:00,
2013-03-05 15:14:00,47.4,39.2,29.80,West,271,0.0,0.0,73,0.00,,---,0.00,VWS V14.01,2013-03-05 23:14:00,
2013-03-05 15:15:00,47.3,39.8,29.80,WSW,257,0.0,0.0,75,0.00,,---,0.00,VWS V14.01,2013-03-05 23:15:00,
2013-03-05 15:19:00,47.5,39.3,29.80,West,271,0.0,0.0,73,0.00,,---,0.00,VWS V14.01,2013-03-05 23:19:00,
2013-03-05 15:24:00,47.5,39.3,29.80,West,272,0.0,0.0,73,0.00,,---,0.00,VWS V14.01,2013-03-05 23:24:00,
2013-03-05 15:29:00,47.5,39.3,29.80,West,262,0.0,0.0,73,0.00,,---,0.00,VWS V14.01,2013-03-05 23:29:00,
2013-03-05 15:30:00,47.0,41.2,29.80,West,268,0.0,0.0,80,0.00,,---,0.00,VWS V14.01,2013-03-05 23:30:00,
2013-03-05 15:34:00,47.5,39.3,29.80,West,271,0.0,0.0,73,0.00,,---,0.00,VWS V14.01,2013-03-05 23:34:00,
2013-03-05 15:39:00,47.3,39.1,29.80,SW,232,0.0,0.0,73,0.00,,---,0.00,VWS V14.01,2013-03-05 23:39:00,
2013-03-05 15:44:00,47.4,39.2,29.80,West,271,0.0,0.0,73,0.00,,---,0.00,VWS V14.01,2013-03-05 23:44:00,
2013-03-05 15:45:00,46.9,41.1,29.79,NNW,338,0.0,0.0,80,0.00,,---,0.00,VWS V14.01,2013-03-05 23:45:00,
2013-03-05 15:49:00,47.3,39.5,29.80,West,278,0.0,0.0,74,0.00,,---,0.00,VWS V14.01,2013-03-05 23:49:00,
2013-03-05 15:54:00,47.3,39.5,29.80,WNW,283,0.0,0.0,74,0.00,,---,0.00,VWS V14.01,2013-03-05 23:54:00,
2013-03-05 15:59:00,47.4,39.9,29.80,West,275,0.0,0.0,75,0.00,,---,0.00,VWS V14.01,2013-03-05 23:59:00,
2013-03-05 16:00:00,46.2,39.7,29.80,NW,308,0.0,0.0,78,0.00,,---,0.00,VWS V14.01,2013-03-06 00:00:00,
2013-03-05 16:04:00,47.3,40.1,29.80,West,264,0.0,0.0,76,0.00,,---,0.00,VWS V14.01,2013-03-06 00:04:00,
2013-03-05 16:09:00,47.2,40.0,29.80,West,272,0.0,0.0,76,0.00,,---,0.00,VWS V14.01,2013-03-06 00:09:00,
2013-03-05 16:14:00,47.3,39.8,29.80,West,270,0.0,0.0,75,0.00,,---,0.00,VWS V14.01,2013-03-06 00:14:00,
2013-03-05 16:15:00,46.1,39.6,29.80,WNW,293,0.0,0.0,78,0.00,,---,0.00,VWS V14.01,2013-03-06 00:15:00,
2013-03-05 16:19:00,47.3,40.5,29.80,WNW,297,0.0,0.0,77,0.00,,---,0.00,VWS V14.01,2013-03-06 00:19:00,
2013-03-05 16:24:00,47.0,40.8,29.80,SW,236,0.0,0.0,79,0.00,,---,0.00,VWS V14.01,2013-03-06 00:24:00,
2013-03-05 16:29:00,47.0,40.8,29.79,West,261,0.0,0.0,79,0.00,,---,0.00,VWS V14.01,2013-03-06 00:29:00,
2013-03-05 16:30:00,45.2,39.1,29.80,WNW,302,0.0,0.0,79,0.00,,---,0.00,VWS V14.01,2013-03-06 00:30:00,
2013-03-05 16:33:00,47.1,40.9,29.79,WNW,286,0.0,0.0,79,0.00,,---,0.00,VWS V14.01,2013-03-06 00:33:00,
2013-03-05 16:38:00,47.0,40.8,29.79,West,273,0.0,0.0,79,0.00,,---,0.00,VWS V14.01,2013-03-06 00:38:00,
2013-03-05 16:43:00,46.9,41.1,29.79,West,259,0.0,0.0,80,0.00,,---,0.00,VWS V14.01,2013-03-06 00:43:00,
2013-03-05 16:45:00,45.1,39.6,29.80,NW,309,0.0,0.0,81,0.00,,---,0.00,VWS V14.01,2013-03-06 00:45:00,
2013-03-05 16:48:00,47.0,41.2,29.79,SW,225,0.0,0.0,80,0.00,,---,0.00,VWS V14.01,2013-03-06 00:48:00,
2013-03-05 16:53:00,46.7,39.9,29.79,NW,304,0.0,0.0,77,0.00,,---,0.00,VWS V14.01,2013-03-06 00:53:00,
2013-03-05 16:58:00,46.2,39.4,29.80,WNW,288,0.0,0.0,77,0.00,,---,0.00,VWS V14.01,2013-03-06 00:58:00,
2013-03-05 17:00:00,44.8,39.0,29.80,NW,309,0.0,0.0,80,0.00,,---,0.00,VWS V14.01,2013-03-06 01:00:00,
2013-03-05 17:03:00,46.1,39.3,29.80,WNW,299,0.0,0.0,77,0.00,,---,0.00,VWS V14.01,2013-03-06 01:03:00,
2013-03-05 17:08:00,46.1,39.6,29.80,West,267,0.0,0.0,78,0.00,,---,0.00,VWS V14.01,2013-03-06 01:08:00,
2013-03-05 17:13:00,46.2,39.7,29.80,NW,307,0.0,0.0,78,0.00,,---,0.00,VWS V14.01,2013-03-06 01:13:00,
2013-03-05 17:15:00,44.7,39.2,29.80,WNW,284,0.0,0.0,81,0.00,,---,0.00,VWS V14.01,2013-03-06 01:15:00,
2013-03-05 17:18:00,46.0,39.9,29.80,WNW,294,0.0,0.0,79,0.00,,---,0.00,VWS V14.01,2013-03-06 01:18:00,
2013-03-05 17:23:00,45.6,39.8,29.80,West,275,0.0,0.0,80,0.00,,---,0.00,VWS V14.01,2013-03-06 01:23:00,
2013-03-05 17:28:00,45.3,39.2,29.80,WNW,302,0.0,0.0,79,0.00,,---,0.00,VWS V14.01,2013-03-06 01:28:00,
2013-03-05 17:30:00,44.6,39.1,29.80,NW,314,0.0,0.0,81,0.00,,---,0.00,VWS V14.01,2013-03-06 01:30:00,
2013-03-05 17:33:00,45.1,39.3,29.80,WNW,302,0.0,0.0,80,0.00,,---,0.00,VWS V14.01,2013-03-06 01:33:00,
2013-03-05 17:38:00,45.1,39.6,29.80,WNW,303,0.0,0.0,81,0.00,,---,0.00,VWS V14.01,2013-03-06 01:38:00,
2013-03-05 17:43:00,45.1,39.6,29.80,NW,305,0.0,0.0,81,0.00,,---,0.00,VWS V14.01,2013-03-06 01:43:00,
2013-03-05 17:45:00,44.5,39.4,29.80,NNW,340,0.0,0.0,82,0.00,,---,0.00,VWS V14.01,2013-03-06 01:45:00,
2013-03-05 17:48:00,45.1,39.6,29.80,WNW,300,0.0,0.0,81,0.00,,---,0.00,VWS V14.01,2013-03-06 01:48:00,
2013-03-05 17:53:00,45.0,39.5,29.80,West,272,0.0,0.0,81,0.00,,---,0.00,VWS V14.01,2013-03-06 01:53:00,
2013-03-05 17:58:00,44.9,39.1,29.80,WNW,294,0.0,0.0,80,0.00,,---,0.00,VWS V14.01,2013-03-06 01:58:00,
2013-03-05 18:00:00,44.3,39.5,29.80,NNW,327,0.0,0.0,83,0.00,,---,0.00,VWS V14.01,2013-03-06 02:00:00,
2013-03-05 18:03:00,44.8,39.3,29.80,NW,325,0.0,0.0,81,0.00,,---,0.00,VWS V14.01,2013-03-06 02:03:00,
2013-03-05 18:08:00,44.8,39.0,29.80,WNW,303,0.0,0.0,80,0.00,,---,0.00,VWS V14.01,2013-03-06 02:08:00,
2013-03-05 18:13:00,44.7,39.2,29.80,NW,306,0.0,0.0,81,0.00,,---,0.00,VWS V14.01,2013-03-06 02:13:00,
2013-03-05 18:15:00,44.4,39.9,29.80,NNW,327,0.0,0.0,84,0.00,,---,0.00,VWS V14.01,2013-03-06 02:15:00,
2013-03-05 18:18:00,44.7,39.2,29.80,WNW,301,0.0,0.0,81,0.00,,---,0.00,VWS V14.01,2013-03-06 02:18:00,
2013-03-05 18:23:00,44.7,39.2,29.80,NNW,336,0.0,0.0,81,0.00,,---,0.00,VWS V14.01,2013-03-06 02:23:00,
2013-03-05 18:28:00,44.6,39.5,29.80,NNW,329,0.0,0.0,82,0.00,,---,0.00,VWS V14.01,2013-03-06 02:28:00,
2013-03-05 18:30:00,44.0,39.8,29.80,NNW,327,0.0,0.0,85,0.00,,---,0.00,VWS V14.01,2013-03-06 02:30:00,
2013-03-05 18:33:00,44.5,39.0,29.80,NW,319,0.0,0.0,81,0.00,,---,0.00,VWS V14.01,2013-03-06 02:33:00,
2013-03-05 18:38:00,44.3,39.2,29.80,NW,321,0.0,0.0,82,0.00,,---,0.00,VWS V14.01,2013-03-06 02:38:00,
2013-03-05 18:43:00,44.4,39.3,29.80,NNW,340,0.0,0.0,82,0.00,,---,0.00,VWS V14.01,2013-03-06 02:43:00,
2013-03-05 18:45:00,43.8,39.9,29.80,NW,326,0.0,0.0,86,0.00,,---,0.00,VWS V14.01,2013-03-06 02:45:00,
2013-03-05 18:48:00,44.5,39.4,29.80,NNW,340,0.0,0.0,82,0.00,,---,0.00,VWS V14.01,2013-03-06 02:48:00,
2013-03-05 18:53:00,44.4,39.6,29.80,NNW,327,0.0,0.0,83,0.00,,---,0.00,VWS V14.01,2013-03-06 02:53:00,
2013-03-05 18:58:00,44.3,39.5,29.80,NNW,327,0.0,0.0,83,0.00,,---,0.00,VWS V14.01,2013-03-06 02:58:00,
2013-03-05 19:00:00,43.6,40.0,29.80,NW,323,0.0,0.0,87,0.00,,---,0.00,VWS V14.01,2013-03-06 03:00:00,
2013-03-05 19:03:00,44.3,39.8,29.80,NNW,327,0.0,0.0,84,0.00,,---,0.00,VWS V14.01,2013-03-06 03:03:00,
2013-03-05 19:08:00,44.4,39.6,29.80,NNW,328,0.0,0.0,83,0.00,,---,0.00,VWS V14.01,2013-03-06 03:08:00,
2013-03-05 19:13:00,44.4,39.9,29.80,NNW,327,0.0,0.0,84,0.00,,---,0.00,VWS V14.01,2013-03-06 03:13:00,
2013-03-05 19:15:00,43.5,39.9,29.80,NW,323,0.0,0.0,87,0.00,,---,0.00,VWS V14.01,2013-03-06 03:15:00,
2013-03-05 19:18:00,44.3,39.5,29.80,NNW,327,0.0,0.0,83,0.00,,---,0.00,VWS V14.01,2013-03-06 03:18:00,
2013-03-05 19:23:00,44.1,39.9,29.80,NNW,327,0.0,0.0,85,0.00,,---,0.00,VWS V14.01,2013-03-06 03:23:00,
2013-03-05 19:28:00,44.0,39.8,29.80,NNW,327,0.0,0.0,85,0.00,,---,0.00,VWS V14.01,2013-03-06 03:28:00,
2013-03-05 19:30:00,43.3,40.0,29.79,NNW,331,0.0,0.0,88,0.00,,---,0.00,VWS V14.01,2013-03-06 03:30:00,
2013-03-05 19:33:00,44.0,39.8,29.80,NNW,327,0.0,0.0,85,0.00,,---,0.00,VWS V14.01,2013-03-06 03:33:00,
2013-03-05 19:38:00,43.9,40.0,29.80,NNW,327,0.0,0.0,86,0.00,,---,0.00,VWS V14.01,2013-03-06 03:38:00,
2013-03-05 19:43:00,43.9,40.0,29.80,NNW,327,0.0,0.0,86,0.00,,---,0.00,VWS V14.01,2013-03-06 03:43:00,
2013-03-05 19:45:00,43.2,40.2,29.79,NNW,339,0.0,0.0,89,0.00,,---,0.00,VWS V14.01,2013-03-06 03:45:00,
2013-03-05 19:48:00,43.7,39.8,29.80,NW,326,0.0,0.0,86,0.00,,---,0.00,VWS V14.01,2013-03-06 03:48:00,
2013-03-05 19:53:00,43.6,39.7,29.80,NW,325,0.0,0.0,86,0.00,,---,0.00,VWS V14.01,2013-03-06 03:53:00,
2013-03-05 19:58:00,43.6,40.0,29.80,NW,325,0.0,0.0,87,0.00,,---,0.00,VWS V14.01,2013-03-06 03:58:00,
2013-03-05 20:00:00,43.4,40.7,29.79,NNW,340,0.0,0.0,90,0.00,,---,0.00,VWS V14.01,2013-03-06 04:00:00,
2013-03-05 20:03:00,43.6,40.0,29.80,NW,323,0.0,0.0,87,0.00,,---,0.00,VWS V14.01,2013-03-06 04:03:00,
2013-03-05 20:08:00,43.5,39.9,29.79,NW,324,0.0,0.0,87,0.00,,---,0.00,VWS V14.01,2013-03-06 04:08:00,
2013-03-05 20:13:00,43.4,39.8,29.79,NW,324,0.0,0.0,87,0.00,,---,0.00,VWS V14.01,2013-03-06 04:13:00,
2013-03-05 20:15:00,43.4,40.7,29.79,NNW,340,0.0,0.0,90,0.00,,---,0.00,VWS V14.01,2013-03-06 04:15:00,
2013-03-05 20:18:00,43.6,40.0,29.80,NW,323,0.0,0.0,87,0.00,,---,0.00,VWS V14.01,2013-03-06 04:18:00,
2013-03-05 20:23:00,43.6,40.0,29.79,NW,323,0.0,0.0,87,0.00,,---,0.00,VWS V14.01,2013-03-06 04:23:00,
2013-03-05 20:28:00,43.4,39.8,29.79,NNW,331,0.0,0.0,87,0.00,,---,0.00,VWS V14.01,2013-03-06 04:28:00,
2013-03-05 20:30:00,43.5,40.8,29.79,NNW,339,0.0,0.0,90,0.00,,---,0.00,VWS V14.01,2013-03-06 04:30:00,
2013-03-05 20:33:00,43.3,40.0,29.79,NNW,331,0.0,0.0,88,0.00,,---,0.00,VWS V14.01,2013-03-06 04:33:00,
2013-03-05 20:38:00,43.2,39.9,29.79,NNW,346,0.0,0.0,88,0.00,,---,0.00,VWS V14.01,2013-03-06 04:38:00,
2013-03-05 20:43:00,43.2,40.2,29.79,NNW,344,0.0,0.0,89,0.00,,---,0.00,VWS V14.01,2013-03-06 04:43:00,
2013-03-05 20:45:00,43.6,40.6,29.79,NNW,334,0.0,0.0,89,0.00,,---,0.00,VWS V14.01,2013-03-06 04:45:00,
2013-03-05 20:48:00,43.3,40.3,29.79,NNW,340,0.0,0.0,89,0.00,,---,0.00,VWS V14.01,2013-03-06 04:48:00,
2013-03-05 20:53:00,43.3,40.3,29.79,NNW,339,0.0,0.0,89,0.00,,---,0.00,VWS V14.01,2013-03-06 04:53:00,
2013-03-05 20:58:00,43.3,40.6,29.79,NNW,339,0.0,0.0,90,0.00,,---,0.00,VWS V14.01,2013-03-06 04:58:00,
2013-03-05 21:00:00,43.4,40.7,29.79,NNW,339,0.0,0.0,90,0.00,,---,0.00,VWS V14.01,2013-03-06 05:00:00,
2013-03-05 21:05:00,43.3,40.6,29.80,NNW,339,0.0,0.0,90,0.00,,---,0.00,VWS V14.01,2013-03-06 05:05:00,
2013-03-05 21:10:00,43.4,40.7,29.79,NNW,340,0.0,0.0,90,0.00,,---,0.00,VWS V14.01,2013-03-06 05:10:00,
2013-03-05 21:15:00,43.4,40.7,29.79,NNW,340,0.0,0.0,90,0.00,,---,0.00,VWS V14.01,2013-03-06 05:15:00,
2013-03-05 21:20:00,43.4,40.7,29.79,NNW,339,0.0,0.0,90,0.00,,---,0.00,VWS V14.01,2013-03-06 05:20:00,
2013-03-05 21:25:00,43.4,40.7,29.79,NNW,340,0.0,0.0,90,0.00,,---,0.00,VWS V14.01,2013-03-06 05:25:00,
2013-03-05 21:30:00,43.5,40.8,29.79,NNW,339,0.0,0.0,90,0.00,,---,0.00,VWS V14.01,2013-03-06 05:30:00,
2013-03-05 21:35:00,43.6,40.6,29.79,NNW,339,0.0,0.0,89,0.00,,---,0.00,VWS V14.01,2013-03-06 05:35:00,
2013-03-05 21:40:00,43.6,40.6,29.79,NNW,327,0.0,0.0,89,0.00,,---,0.00,VWS V14.01,2013-03-06 05:40:00,
2013-03-05 21:45:00,43.6,40.6,29.79,NW,304,0.0,0.0,89,0.00,,---,0.00,VWS V14.01,2013-03-06 05:45:00,
2013-03-05 21:50:00,43.6,40.6,29.79,NW,322,0.0,0.0,89,0.00,,---,0.00,VWS V14.01,2013-03-06 05:50:00,
2013-03-05 21:55:00,43.7,40.7,29.79,North,355,0.0,0.0,89,0.00,,---,0.00,VWS V14.01,2013-03-06 05:55:00,
2013-03-05 22:00:00,43.7,40.7,29.78,NNW,330,0.0,0.0,89,0.00,,---,0.00,VWS V14.01,2013-03-06 06:00:00,
2013-03-05 22:05:00,43.6,40.9,29.78,North,355,0.0,0.0,90,0.00,,---,0.00,VWS V14.01,2013-03-06 06:05:00,
2013-03-05 22:10:00,43.6,40.9,29.78,NW,313,0.0,0.0,90,0.00,,---,0.00,VWS V14.01,2013-03-06 06:10:00,
2013-03-05 22:15:00,43.6,40.9,29.78,NNW,329,0.0,0.0,90,0.00,,---,0.00,VWS V14.01,2013-03-06 06:15:00,
2013-03-05 22:20:00,43.6,40.9,29.78,NNW,329,0.0,0.0,90,0.00,,---,0.00,VWS V14.01,2013-03-06 06:20:00,
2013-03-05 22:25:00,43.6,40.9,29.78,NW,309,0.0,0.0,90,0.00,,---,0.00,VWS V14.01,2013-03-06 06:25:00,
2013-03-05 22:30:00,43.6,40.9,29.78,WNW,290,0.0,0.0,90,0.00,,---,0.00,VWS V14.01,2013-03-06 06:30:00,
2013-03-05 22:35:00,43.6,40.6,29.78,NNW,339,0.0,0.0,89,0.00,,---,0.00,VWS V14.01,2013-03-06 06:35:00,
2013-03-05 22:40:00,43.6,40.6,29.78,WSW,241,0.0,0.0,89,0.00,,---,0.00,VWS V14.01,2013-03-06 06:40:00,
2013-03-05 22:45:00,43.6,40.6,29.77,NW,323,0.0,0.0,89,0.00,,---,0.00,VWS V14.01,2013-03-06 06:45:00,
2013-03-05 22:50:00,43.7,40.7,29.77,North,349,0.0,0.0,89,0.00,,---,0.00,VWS V14.01,2013-03-06 06:50:00,
2013-03-05 22:55:00,43.7,40.7,29.77,NW,323,0.0,0.0,89,0.00,,---,0.00,VWS V14.01,2013-03-06 06:55:00,
2013-03-05 23:00:00,43.7,40.7,29.76,West,266,0.0,0.0,89,0.00,,---,0.00,VWS V14.01,2013-03-06 07:00:00,
2013-03-05 23:05:00,43.8,41.1,29.76,WSW,252,0.0,0.0,90,0.00,,---,0.00,VWS V14.01,2013-03-06 07:05:00,
2013-03-05 23:10:00,43.7,41.0,29.76,NNW,337,0.0,0.0,90,0.00,,---,0.00,VWS V14.01,2013-03-06 07:10:00,
2013-03-05 23:15:00,43.5,40.8,29.76,WNW,282,0.0,0.0,90,0.00,,---,0.00,VWS V14.01,2013-03-06 07:15:00,
2013-03-05 23:20:00,43.5,40.8,29.76,ESE,114,0.0,0.0,90,0.00,,---,0.00,VWS V14.01,2013-03-06 07:20:00,
2013-03-05 23:25:00,43.5,40.8,29.76,West,261,0.0,0.0,90,0.00,,---,0.00,VWS V14.01,2013-03-06 07:25:00,
2013-03-05 23:30:00,43.5,40.8,29.76,West,280,0.0,0.0,90,0.00,,---,0.00,VWS V14.01,2013-03-06 07:30:00,
2013-03-05 23:35:00,43.5,40.8,29.75,NNW,346,0.0,0.0,90,0.00,,---,0.00,VWS V14.01,2013-03-06 07:35:00,
2013-03-05 23:40:00,43.4,40.7,29.75,WNW,288,0.0,0.0,90,0.00,,---,0.00,VWS V14.01,2013-03-06 07:40:00,
2013-03-05 23:45:00,43.4,40.4,29.75,SSW,196,0.0,0.0,89,0.00,,---,0.00,VWS V14.01,2013-03-06 07:45:00,
2013-03-05 23:50:00,43.3,40.3,29.75,NNE,23,0.0,0.0,89,0.00,,---,0.00,VWS V14.01,2013-03-06 07:50:00,
2013-03-05 23:55:00,43.3,40.3,29.75,NNW,343,0.0,0.0,89,0.00,,---,0.00,VWS V14.01,2013-03-06 07:55:00,